sensor_id;sensor_type;location;lat;lon;timestamp;P1;durP1;ratioP1;P2;durP2;ratioP2
20928;SDS011;21895;47.072;15.132;2023-04-15T00:01:00;12.27;;;5.47;;
20928;SDS011;21895;47.072;15.132;2023-04-15T00:03:27;17.93;;;5.47;;
20928;SDS011;21895;47.072;15.132;2023-04-15T00:05:54;6.00;;;3.63;;
20928;SDS011;21895;47.072;15.132;2023-04-15T00:08:21;7.60;;;3.13;;
20928;SDS011;21895;47.072;15.132;2023-04-15T00:10:47;5.43;;;3.30;;
20928;SDS011;21895;47.072;15.132;2023-04-15T00:13:14;8.40;;;3.03;;
20928;SDS011;21895;47.072;15.132;2023-04-15T00:15:41;4.80;;;2.90;;
20928;SDS011;21895;47.072;15.132;2023-04-15T00:18:07;4.87;;;3.13;;
20928;SDS011;21895;47.072;15.132;2023-04-15T00:20:34;4.57;;;3.03;;
20928;SDS011;21895;47.072;15.132;2023-04-15T00:23:01;4.83;;;3.13;;
20928;SDS011;21895;47.072;15.132;2023-04-15T00:25:28;4.23;;;2.70;;
20928;SDS011;21895;47.072;15.132;2023-04-15T00:27:54;5.03;;;2.83;;
20928;SDS011;21895;47.072;15.132;2023-04-15T00:30:21;5.10;;;3.30;;
20928;SDS011;21895;47.072;15.132;2023-04-15T00:32:48;4.80;;;3.37;;
20928;SDS011;21895;47.072;15.132;2023-04-15T00:35:14;5.03;;;3.20;;
20928;SDS011;21895;47.072;15.132;2023-04-15T00:37:41;6.67;;;3.43;;
20928;SDS011;21895;47.072;15.132;2023-04-15T00:40:13;4.13;;;2.90;;
20928;SDS011;21895;47.072;15.132;2023-04-15T00:42:44;4.87;;;3.00;;
20928;SDS011;21895;47.072;15.132;2023-04-15T00:45:10;4.93;;;3.20;;
20928;SDS011;21895;47.072;15.132;2023-04-15T00:47:37;5.60;;;3.47;;
20928;SDS011;21895;47.072;15.132;2023-04-15T00:50:07;4.83;;;3.30;;
20928;SDS011;21895;47.072;15.132;2023-04-15T00:52:34;5.97;;;3.30;;
20928;SDS011;21895;47.072;15.132;2023-04-15T00:55:01;5.73;;;3.60;;
20928;SDS011;21895;47.072;15.132;2023-04-15T00:57:29;5.50;;;3.57;;
20928;SDS011;21895;47.072;15.132;2023-04-15T00:59:56;6.23;;;3.53;;
20928;SDS011;21895;47.072;15.132;2023-04-15T01:02:23;3.90;;;2.83;;
20928;SDS011;21895;47.072;15.132;2023-04-15T01:04:50;5.93;;;2.80;;
20928;SDS011;21895;47.072;15.132;2023-04-15T01:07:16;6.40;;;3.23;;
20928;SDS011;21895;47.072;15.132;2023-04-15T01:09:43;4.90;;;2.87;;
20928;SDS011;21895;47.072;15.132;2023-04-15T01:12:11;5.47;;;3.20;;
20928;SDS011;21895;47.072;15.132;2023-04-15T01:14:39;2.83;;;2.20;;
20928;SDS011;21895;47.072;15.132;2023-04-15T01:17:06;4.33;;;3.00;;
20928;SDS011;21895;47.072;15.132;2023-04-15T01:19:33;5.30;;;3.40;;
20928;SDS011;21895;47.072;15.132;2023-04-15T01:22:02;4.83;;;2.80;;
20928;SDS011;21895;47.072;15.132;2023-04-15T01:24:30;4.60;;;3.30;;
20928;SDS011;21895;47.072;15.132;2023-04-15T01:27:00;6.27;;;3.70;;
20928;SDS011;21895;47.072;15.132;2023-04-15T01:29:26;6.17;;;3.40;;
20928;SDS011;21895;47.072;15.132;2023-04-15T01:31:54;4.40;;;3.23;;
20928;SDS011;21895;47.072;15.132;2023-04-15T01:34:21;6.43;;;3.43;;
20928;SDS011;21895;47.072;15.132;2023-04-15T01:36:48;6.13;;;3.53;;
20928;SDS011;21895;47.072;15.132;2023-04-15T01:39:14;5.33;;;3.17;;
20928;SDS011;21895;47.072;15.132;2023-04-15T01:41:41;4.20;;;2.93;;
20928;SDS011;21895;47.072;15.132;2023-04-15T01:44:07;4.57;;;3.20;;
20928;SDS011;21895;47.072;15.132;2023-04-15T01:46:35;5.63;;;3.30;;
20928;SDS011;21895;47.072;15.132;2023-04-15T01:49:02;5.70;;;3.00;;
20928;SDS011;21895;47.072;15.132;2023-04-15T01:51:28;5.33;;;3.03;;
20928;SDS011;21895;47.072;15.132;2023-04-15T01:53:55;5.23;;;3.13;;
20928;SDS011;21895;47.072;15.132;2023-04-15T01:56:22;4.73;;;3.40;;
20928;SDS011;21895;47.072;15.132;2023-04-15T01:58:48;5.60;;;3.40;;
20928;SDS011;21895;47.072;15.132;2023-04-15T02:01:15;5.67;;;3.17;;
20928;SDS011;21895;47.072;15.132;2023-04-15T02:03:44;4.70;;;3.13;;
20928;SDS011;21895;47.072;15.132;2023-04-15T02:06:11;5.30;;;3.10;;
20928;SDS011;21895;47.072;15.132;2023-04-15T02:08:38;4.87;;;2.97;;
20928;SDS011;21895;47.072;15.132;2023-04-15T02:11:04;4.30;;;2.80;;
20928;SDS011;21895;47.072;15.132;2023-04-15T02:13:31;4.27;;;2.80;;
20928;SDS011;21895;47.072;15.132;2023-04-15T02:15:57;5.17;;;2.90;;
20928;SDS011;21895;47.072;15.132;2023-04-15T02:18:24;5.00;;;3.23;;
20928;SDS011;21895;47.072;15.132;2023-04-15T02:20:51;4.70;;;2.87;;
20928;SDS011;21895;47.072;15.132;2023-04-15T02:23:17;5.20;;;3.23;;
20928;SDS011;21895;47.072;15.132;2023-04-15T02:25:44;5.07;;;3.00;;
20928;SDS011;21895;47.072;15.132;2023-04-15T02:28:19;5.57;;;3.27;;
20928;SDS011;21895;47.072;15.132;2023-04-15T02:30:47;5.63;;;3.47;;
20928;SDS011;21895;47.072;15.132;2023-04-15T02:33:16;5.00;;;3.20;;
20928;SDS011;21895;47.072;15.132;2023-04-15T02:35:43;11.47;;;3.87;;
20928;SDS011;21895;47.072;15.132;2023-04-15T02:38:10;5.10;;;3.17;;
20928;SDS011;21895;47.072;15.132;2023-04-15T02:40:37;6.27;;;3.27;;
20928;SDS011;21895;47.072;15.132;2023-04-15T02:43:03;5.70;;;3.67;;
20928;SDS011;21895;47.072;15.132;2023-04-15T02:45:31;7.80;;;4.27;;
20928;SDS011;21895;47.072;15.132;2023-04-15T02:47:58;8.90;;;3.93;;
20928;SDS011;21895;47.072;15.132;2023-04-15T02:50:28;6.13;;;3.80;;
20928;SDS011;21895;47.072;15.132;2023-04-15T02:52:56;9.90;;;4.00;;
20928;SDS011;21895;47.072;15.132;2023-04-15T02:55:22;23.83;;;4.03;;
20928;SDS011;21895;47.072;15.132;2023-04-15T02:57:49;6.43;;;4.20;;
20928;SDS011;21895;47.072;15.132;2023-04-15T03:00:15;6.93;;;3.73;;
20928;SDS011;21895;47.072;15.132;2023-04-15T03:02:43;5.07;;;3.37;;
20928;SDS011;21895;47.072;15.132;2023-04-15T03:05:12;5.03;;;3.57;;
20928;SDS011;21895;47.072;15.132;2023-04-15T03:07:39;6.27;;;3.70;;
20928;SDS011;21895;47.072;15.132;2023-04-15T03:10:06;8.17;;;3.97;;
20928;SDS011;21895;47.072;15.132;2023-04-15T03:12:33;5.60;;;3.40;;
20928;SDS011;21895;47.072;15.132;2023-04-15T03:14:59;5.57;;;3.60;;
20928;SDS011;21895;47.072;15.132;2023-04-15T03:17:26;7.43;;;4.23;;
20928;SDS011;21895;47.072;15.132;2023-04-15T03:19:53;5.47;;;3.77;;
20928;SDS011;21895;47.072;15.132;2023-04-15T03:22:19;4.57;;;3.10;;
20928;SDS011;21895;47.072;15.132;2023-04-15T03:24:46;5.80;;;3.73;;
20928;SDS011;21895;47.072;15.132;2023-04-15T03:27:15;6.97;;;3.90;;
20928;SDS011;21895;47.072;15.132;2023-04-15T03:29:41;5.47;;;3.60;;
20928;SDS011;21895;47.072;15.132;2023-04-15T03:32:07;5.67;;;3.27;;
20928;SDS011;21895;47.072;15.132;2023-04-15T03:34:34;5.60;;;3.50;;
20928;SDS011;21895;47.072;15.132;2023-04-15T03:37:01;6.53;;;3.73;;
20928;SDS011;21895;47.072;15.132;2023-04-15T03:39:27;6.70;;;4.23;;
20928;SDS011;21895;47.072;15.132;2023-04-15T03:41:54;6.87;;;4.30;;
20928;SDS011;21895;47.072;15.132;2023-04-15T03:44:20;6.20;;;4.00;;
20928;SDS011;21895;47.072;15.132;2023-04-15T03:46:47;6.07;;;4.00;;
20928;SDS011;21895;47.072;15.132;2023-04-15T03:49:14;7.03;;;3.90;;
20928;SDS011;21895;47.072;15.132;2023-04-15T03:51:40;7.27;;;3.70;;
20928;SDS011;21895;47.072;15.132;2023-04-15T03:54:07;5.70;;;3.57;;
20928;SDS011;21895;47.072;15.132;2023-04-15T03:56:33;8.40;;;3.90;;
20928;SDS011;21895;47.072;15.132;2023-04-15T03:59:00;5.43;;;3.67;;
20928;SDS011;21895;47.072;15.132;2023-04-15T04:01:27;8.67;;;3.50;;
20928;SDS011;21895;47.072;15.132;2023-04-15T04:03:54;5.77;;;3.57;;
20928;SDS011;21895;47.072;15.132;2023-04-15T04:06:20;7.77;;;3.70;;
20928;SDS011;21895;47.072;15.132;2023-04-15T04:08:47;9.27;;;3.80;;
20928;SDS011;21895;47.072;15.132;2023-04-15T04:11:13;6.63;;;3.47;;
20928;SDS011;21895;47.072;15.132;2023-04-15T04:13:40;6.50;;;3.77;;
20928;SDS011;21895;47.072;15.132;2023-04-15T04:16:07;6.33;;;3.90;;
20928;SDS011;21895;47.072;15.132;2023-04-15T04:18:33;6.00;;;3.70;;
20928;SDS011;21895;47.072;15.132;2023-04-15T04:21:00;6.73;;;3.73;;
20928;SDS011;21895;47.072;15.132;2023-04-15T04:23:27;5.00;;;3.37;;
20928;SDS011;21895;47.072;15.132;2023-04-15T04:25:53;5.90;;;3.80;;
20928;SDS011;21895;47.072;15.132;2023-04-15T04:28:20;7.00;;;3.70;;
20928;SDS011;21895;47.072;15.132;2023-04-15T04:30:46;6.30;;;3.40;;
20928;SDS011;21895;47.072;15.132;2023-04-15T04:33:13;5.77;;;3.63;;
20928;SDS011;21895;47.072;15.132;2023-04-15T04:35:39;6.90;;;4.00;;
20928;SDS011;21895;47.072;15.132;2023-04-15T04:38:06;8.23;;;3.73;;
20928;SDS011;21895;47.072;15.132;2023-04-15T04:40:32;5.23;;;3.30;;
20928;SDS011;21895;47.072;15.132;2023-04-15T04:42:59;7.23;;;3.77;;
20928;SDS011;21895;47.072;15.132;2023-04-15T04:45:26;6.00;;;3.60;;
20928;SDS011;21895;47.072;15.132;2023-04-15T04:47:52;7.60;;;3.60;;
20928;SDS011;21895;47.072;15.132;2023-04-15T04:50:19;6.03;;;3.80;;
20928;SDS011;21895;47.072;15.132;2023-04-15T04:52:45;5.70;;;3.50;;
20928;SDS011;21895;47.072;15.132;2023-04-15T04:55:12;12.13;;;5.67;;
20928;SDS011;21895;47.072;15.132;2023-04-15T04:57:38;13.73;;;6.93;;
20928;SDS011;21895;47.072;15.132;2023-04-15T05:00:05;13.67;;;6.93;;
20928;SDS011;21895;47.072;15.132;2023-04-15T05:02:33;18.80;;;8.07;;
20928;SDS011;21895;47.072;15.132;2023-04-15T05:05:00;10.40;;;5.23;;
20928;SDS011;21895;47.072;15.132;2023-04-15T05:07:27;6.10;;;3.57;;
20928;SDS011;21895;47.072;15.132;2023-04-15T05:09:53;6.17;;;3.67;;
20928;SDS011;21895;47.072;15.132;2023-04-15T05:12:20;5.80;;;3.90;;
20928;SDS011;21895;47.072;15.132;2023-04-15T05:14:47;7.90;;;4.67;;
20928;SDS011;21895;47.072;15.132;2023-04-15T05:17:13;8.43;;;4.30;;
20928;SDS011;21895;47.072;15.132;2023-04-15T05:19:39;9.97;;;5.20;;
20928;SDS011;21895;47.072;15.132;2023-04-15T05:22:06;9.43;;;4.97;;
20928;SDS011;21895;47.072;15.132;2023-04-15T05:24:33;7.73;;;4.53;;
20928;SDS011;21895;47.072;15.132;2023-04-15T05:26:59;8.50;;;4.30;;
20928;SDS011;21895;47.072;15.132;2023-04-15T05:29:26;4.43;;;3.23;;
20928;SDS011;21895;47.072;15.132;2023-04-15T05:31:53;6.73;;;4.13;;
20928;SDS011;21895;47.072;15.132;2023-04-15T05:34:20;5.73;;;3.73;;
20928;SDS011;21895;47.072;15.132;2023-04-15T05:36:46;7.33;;;4.00;;
20928;SDS011;21895;47.072;15.132;2023-04-15T05:39:13;9.53;;;5.30;;
20928;SDS011;21895;47.072;15.132;2023-04-15T05:41:39;12.83;;;6.07;;
20928;SDS011;21895;47.072;15.132;2023-04-15T05:44:06;11.53;;;6.30;;
20928;SDS011;21895;47.072;15.132;2023-04-15T05:46:32;10.60;;;6.10;;
20928;SDS011;21895;47.072;15.132;2023-04-15T05:48:59;11.80;;;5.93;;
20928;SDS011;21895;47.072;15.132;2023-04-15T05:51:26;10.67;;;5.93;;
20928;SDS011;21895;47.072;15.132;2023-04-15T05:53:52;14.97;;;8.13;;
20928;SDS011;21895;47.072;15.132;2023-04-15T05:56:19;13.23;;;6.87;;
20928;SDS011;21895;47.072;15.132;2023-04-15T05:58:46;9.57;;;5.47;;
20928;SDS011;21895;47.072;15.132;2023-04-15T06:01:13;20.60;;;5.30;;
20928;SDS011;21895;47.072;15.132;2023-04-15T06:03:39;9.43;;;5.40;;
20928;SDS011;21895;47.072;15.132;2023-04-15T06:06:07;10.03;;;5.13;;
20928;SDS011;21895;47.072;15.132;2023-04-15T06:08:34;12.17;;;6.00;;
20928;SDS011;21895;47.072;15.132;2023-04-15T06:11:01;12.03;;;5.60;;
20928;SDS011;21895;47.072;15.132;2023-04-15T06:13:27;9.60;;;5.10;;
20928;SDS011;21895;47.072;15.132;2023-04-15T06:15:54;10.63;;;5.57;;
20928;SDS011;21895;47.072;15.132;2023-04-15T06:18:20;8.93;;;5.40;;
20928;SDS011;21895;47.072;15.132;2023-04-15T06:20:47;10.57;;;5.20;;
20928;SDS011;21895;47.072;15.132;2023-04-15T06:23:13;9.40;;;5.57;;
20928;SDS011;21895;47.072;15.132;2023-04-15T06:25:40;10.77;;;5.97;;
20928;SDS011;21895;47.072;15.132;2023-04-15T06:28:06;10.73;;;5.67;;
20928;SDS011;21895;47.072;15.132;2023-04-15T06:30:33;10.00;;;5.40;;
20928;SDS011;21895;47.072;15.132;2023-04-15T06:33:00;9.30;;;5.47;;
20928;SDS011;21895;47.072;15.132;2023-04-15T06:35:29;11.90;;;6.03;;
20928;SDS011;21895;47.072;15.132;2023-04-15T06:37:56;9.60;;;5.93;;
20928;SDS011;21895;47.072;15.132;2023-04-15T06:40:23;12.67;;;6.50;;
20928;SDS011;21895;47.072;15.132;2023-04-15T06:42:49;10.90;;;6.00;;
20928;SDS011;21895;47.072;15.132;2023-04-15T06:45:16;11.07;;;6.47;;
20928;SDS011;21895;47.072;15.132;2023-04-15T06:47:42;13.17;;;6.77;;
20928;SDS011;21895;47.072;15.132;2023-04-15T06:50:09;11.03;;;6.07;;
20928;SDS011;21895;47.072;15.132;2023-04-15T06:52:36;13.73;;;6.60;;
20928;SDS011;21895;47.072;15.132;2023-04-15T06:55:02;13.77;;;6.03;;
20928;SDS011;21895;47.072;15.132;2023-04-15T06:57:29;12.77;;;5.93;;
20928;SDS011;21895;47.072;15.132;2023-04-15T06:59:58;12.03;;;6.40;;
20928;SDS011;21895;47.072;15.132;2023-04-15T07:02:25;13.57;;;7.20;;
20928;SDS011;21895;47.072;15.132;2023-04-15T07:04:52;11.43;;;6.83;;
20928;SDS011;21895;47.072;15.132;2023-04-15T07:07:18;12.27;;;6.73;;
20928;SDS011;21895;47.072;15.132;2023-04-15T07:09:45;10.90;;;5.97;;
20928;SDS011;21895;47.072;15.132;2023-04-15T07:12:12;10.47;;;6.00;;
20928;SDS011;21895;47.072;15.132;2023-04-15T07:14:38;10.53;;;6.20;;
20928;SDS011;21895;47.072;15.132;2023-04-15T07:17:05;15.10;;;6.70;;
20928;SDS011;21895;47.072;15.132;2023-04-15T07:19:32;10.43;;;5.83;;
20928;SDS011;21895;47.072;15.132;2023-04-15T07:21:59;16.40;;;6.60;;
20928;SDS011;21895;47.072;15.132;2023-04-15T07:24:26;13.13;;;5.80;;
20928;SDS011;21895;47.072;15.132;2023-04-15T07:26:53;10.13;;;6.10;;
20928;SDS011;21895;47.072;15.132;2023-04-15T07:29:25;12.63;;;6.20;;
20928;SDS011;21895;47.072;15.132;2023-04-15T07:31:52;10.33;;;6.33;;
20928;SDS011;21895;47.072;15.132;2023-04-15T07:34:19;11.43;;;6.43;;
20928;SDS011;21895;47.072;15.132;2023-04-15T07:36:45;12.10;;;6.47;;
20928;SDS011;21895;47.072;15.132;2023-04-15T07:39:15;14.13;;;6.70;;
20928;SDS011;21895;47.072;15.132;2023-04-15T07:41:42;13.73;;;7.63;;
20928;SDS011;21895;47.072;15.132;2023-04-15T07:44:08;12.27;;;6.83;;
20928;SDS011;21895;47.072;15.132;2023-04-15T07:46:35;12.20;;;7.30;;
20928;SDS011;21895;47.072;15.132;2023-04-15T07:49:03;16.23;;;7.33;;
20928;SDS011;21895;47.072;15.132;2023-04-15T07:51:29;9.90;;;5.73;;
20928;SDS011;21895;47.072;15.132;2023-04-15T07:53:56;9.37;;;5.80;;
20928;SDS011;21895;47.072;15.132;2023-04-15T07:56:23;9.43;;;5.40;;
20928;SDS011;21895;47.072;15.132;2023-04-15T07:58:50;11.50;;;5.00;;
20928;SDS011;21895;47.072;15.132;2023-04-15T08:01:17;10.23;;;5.03;;
20928;SDS011;21895;47.072;15.132;2023-04-15T08:03:44;9.07;;;5.33;;
20928;SDS011;21895;47.072;15.132;2023-04-15T08:06:10;8.43;;;5.00;;
20928;SDS011;21895;47.072;15.132;2023-04-15T08:08:37;6.73;;;4.67;;
20928;SDS011;21895;47.072;15.132;2023-04-15T08:11:04;9.00;;;4.27;;
20928;SDS011;21895;47.072;15.132;2023-04-15T08:13:30;7.37;;;4.90;;
20928;SDS011;21895;47.072;15.132;2023-04-15T08:20:44;6.90;;;3.73;;
20928;SDS011;21895;47.072;15.132;2023-04-15T08:23:11;5.77;;;3.73;;
20928;SDS011;21895;47.072;15.132;2023-04-15T08:25:38;5.57;;;3.70;;
20928;SDS011;21895;47.072;15.132;2023-04-15T08:28:04;5.90;;;3.77;;
20928;SDS011;21895;47.072;15.132;2023-04-15T08:30:33;7.90;;;4.00;;
20928;SDS011;21895;47.072;15.132;2023-04-15T08:33:00;5.13;;;3.40;;
20928;SDS011;21895;47.072;15.132;2023-04-15T08:35:26;6.37;;;3.60;;
20928;SDS011;21895;47.072;15.132;2023-04-15T08:37:53;7.33;;;3.50;;
20928;SDS011;21895;47.072;15.132;2023-04-15T08:40:19;4.77;;;3.37;;
20928;SDS011;21895;47.072;15.132;2023-04-15T08:42:58;5.13;;;3.20;;
20928;SDS011;21895;47.072;15.132;2023-04-15T08:45:28;6.60;;;3.93;;
20928;SDS011;21895;47.072;15.132;2023-04-15T08:47:55;5.20;;;3.23;;
20928;SDS011;21895;47.072;15.132;2023-04-15T08:50:23;5.00;;;3.47;;
20928;SDS011;21895;47.072;15.132;2023-04-15T08:52:54;5.60;;;3.50;;
20928;SDS011;21895;47.072;15.132;2023-04-15T08:55:24;7.20;;;3.47;;
20928;SDS011;21895;47.072;15.132;2023-04-15T08:57:58;5.50;;;3.50;;
20928;SDS011;21895;47.072;15.132;2023-04-15T09:00:30;3.53;;;3.00;;
20928;SDS011;21895;47.072;15.132;2023-04-15T09:02:58;5.53;;;3.63;;
20928;SDS011;21895;47.072;15.132;2023-04-15T09:05:25;7.07;;;3.87;;
20928;SDS011;21895;47.072;15.132;2023-04-15T09:07:52;5.90;;;3.90;;
20928;SDS011;21895;47.072;15.132;2023-04-15T09:10:18;4.77;;;3.40;;
20928;SDS011;21895;47.072;15.132;2023-04-15T09:12:45;4.73;;;3.17;;
20928;SDS011;21895;47.072;15.132;2023-04-15T09:15:11;5.80;;;3.50;;
20928;SDS011;21895;47.072;15.132;2023-04-15T09:17:42;5.03;;;3.40;;
20928;SDS011;21895;47.072;15.132;2023-04-15T09:20:10;4.57;;;3.03;;
20928;SDS011;21895;47.072;15.132;2023-04-15T09:22:39;4.67;;;3.30;;
20928;SDS011;21895;47.072;15.132;2023-04-15T09:28:07;3.20;;;2.70;;
20928;SDS011;21895;47.072;15.132;2023-04-15T09:30:35;4.53;;;2.67;;
20928;SDS011;21895;47.072;15.132;2023-04-15T09:33:02;6.63;;;2.77;;
20928;SDS011;21895;47.072;15.132;2023-04-15T09:35:32;4.40;;;2.50;;
20928;SDS011;21895;47.072;15.132;2023-04-15T09:38:03;4.77;;;2.87;;
20928;SDS011;21895;47.072;15.132;2023-04-15T09:43:10;6.50;;;2.50;;
20928;SDS011;21895;47.072;15.132;2023-04-15T09:45:38;4.70;;;2.87;;
20928;SDS011;21895;47.072;15.132;2023-04-15T09:48:20;4.30;;;2.93;;
20928;SDS011;21895;47.072;15.132;2023-04-15T09:50:54;7.50;;;3.03;;
20928;SDS011;21895;47.072;15.132;2023-04-15T09:53:23;3.90;;;2.73;;
20928;SDS011;21895;47.072;15.132;2023-04-15T09:55:52;3.90;;;2.93;;
20928;SDS011;21895;47.072;15.132;2023-04-15T09:58:22;4.07;;;3.07;;
20928;SDS011;21895;47.072;15.132;2023-04-15T10:00:54;5.47;;;3.23;;
20928;SDS011;21895;47.072;15.132;2023-04-15T10:03:23;4.00;;;2.70;;
20928;SDS011;21895;47.072;15.132;2023-04-15T10:05:53;5.97;;;3.20;;
20928;SDS011;21895;47.072;15.132;2023-04-15T10:08:22;2.77;;;2.47;;
20928;SDS011;21895;47.072;15.132;2023-04-15T10:10:52;5.27;;;2.47;;
20928;SDS011;21895;47.072;15.132;2023-04-15T10:13:20;6.40;;;3.00;;
20928;SDS011;21895;47.072;15.132;2023-04-15T10:21:09;2.73;;;2.20;;
20928;SDS011;21895;47.072;15.132;2023-04-15T10:23:45;3.87;;;2.40;;
20928;SDS011;21895;47.072;15.132;2023-04-15T10:26:13;3.80;;;2.47;;
20928;SDS011;21895;47.072;15.132;2023-04-15T10:28:42;3.23;;;2.60;;
20928;SDS011;21895;47.072;15.132;2023-04-15T10:31:12;2.30;;;2.10;;
20928;SDS011;21895;47.072;15.132;2023-04-15T10:33:41;2.83;;;2.20;;
20928;SDS011;21895;47.072;15.132;2023-04-15T10:36:10;3.07;;;1.80;;
20928;SDS011;21895;47.072;15.132;2023-04-15T10:38:38;3.60;;;2.00;;
20928;SDS011;21895;47.072;15.132;2023-04-15T10:41:17;2.27;;;2.00;;
20928;SDS011;21895;47.072;15.132;2023-04-15T10:46:40;2.33;;;1.60;;
20928;SDS011;21895;47.072;15.132;2023-04-15T10:49:15;1.37;;;1.27;;
20928;SDS011;21895;47.072;15.132;2023-04-15T10:51:50;2.30;;;1.60;;
20928;SDS011;21895;47.072;15.132;2023-04-15T10:57:12;5.60;;;1.83;;
20928;SDS011;21895;47.072;15.132;2023-04-15T11:01:10;2.60;;;1.90;;
20928;SDS011;21895;47.072;15.132;2023-04-15T11:03:39;4.30;;;2.60;;
20928;SDS011;21895;47.072;15.132;2023-04-15T11:06:11;1.80;;;1.00;;
20928;SDS011;21895;47.072;15.132;2023-04-15T11:08:56;2.10;;;1.10;;
20928;SDS011;21895;47.072;15.132;2023-04-15T11:14:38;0.83;;;0.73;;
20928;SDS011;21895;47.072;15.132;2023-04-15T11:17:07;2.97;;;0.70;;
20928;SDS011;21895;47.072;15.132;2023-04-15T11:19:34;1.07;;;0.80;;
20928;SDS011;21895;47.072;15.132;2023-04-15T11:22:09;2.87;;;0.80;;
20928;SDS011;21895;47.072;15.132;2023-04-15T11:24:36;0.93;;;0.70;;
20928;SDS011;21895;47.072;15.132;2023-04-15T11:27:21;4.50;;;0.90;;
20928;SDS011;21895;47.072;15.132;2023-04-15T11:29:48;1.00;;;0.77;;
20928;SDS011;21895;47.072;15.132;2023-04-15T11:32:15;1.47;;;0.70;;
20928;SDS011;21895;47.072;15.132;2023-04-15T11:34:44;0.70;;;0.70;;
20928;SDS011;21895;47.072;15.132;2023-04-15T11:37:11;1.13;;;0.80;;
20928;SDS011;21895;47.072;15.132;2023-04-15T11:39:38;2.10;;;0.90;;
20928;SDS011;21895;47.072;15.132;2023-04-15T11:42:15;4.10;;;0.70;;
20928;SDS011;21895;47.072;15.132;2023-04-15T11:44:42;0.50;;;0.50;;
20928;SDS011;21895;47.072;15.132;2023-04-15T11:47:22;4.10;;;1.07;;
20928;SDS011;21895;47.072;15.132;2023-04-15T11:49:49;2.80;;;0.80;;
20928;SDS011;21895;47.072;15.132;2023-04-15T11:52:16;1.07;;;0.90;;
20928;SDS011;21895;47.072;15.132;2023-04-15T11:54:42;1.60;;;0.80;;
20928;SDS011;21895;47.072;15.132;2023-04-15T11:57:09;1.23;;;0.83;;
20928;SDS011;21895;47.072;15.132;2023-04-15T11:59:42;1.20;;;0.80;;
20928;SDS011;21895;47.072;15.132;2023-04-15T12:02:11;1.93;;;0.73;;
20928;SDS011;21895;47.072;15.132;2023-04-15T12:04:38;1.30;;;0.93;;
20928;SDS011;21895;47.072;15.132;2023-04-15T12:07:05;1.20;;;0.90;;
20928;SDS011;21895;47.072;15.132;2023-04-15T12:09:36;1.97;;;0.80;;
20928;SDS011;21895;47.072;15.132;2023-04-15T12:12:04;1.80;;;1.07;;
20928;SDS011;21895;47.072;15.132;2023-04-15T12:14:31;1.37;;;0.90;;
20928;SDS011;21895;47.072;15.132;2023-04-15T12:17:02;1.07;;;0.90;;
20928;SDS011;21895;47.072;15.132;2023-04-15T12:19:37;0.87;;;0.80;;
20928;SDS011;21895;47.072;15.132;2023-04-15T12:22:09;1.13;;;1.00;;
20928;SDS011;21895;47.072;15.132;2023-04-15T12:24:41;1.00;;;0.90;;
20928;SDS011;21895;47.072;15.132;2023-04-15T12:27:13;3.90;;;1.10;;
20928;SDS011;21895;47.072;15.132;2023-04-15T12:29:41;1.33;;;0.97;;
20928;SDS011;21895;47.072;15.132;2023-04-15T12:32:09;1.23;;;0.97;;
20928;SDS011;21895;47.072;15.132;2023-04-15T12:34:41;0.73;;;0.60;;
20928;SDS011;21895;47.072;15.132;2023-04-15T12:37:14;0.80;;;0.80;;
20928;SDS011;21895;47.072;15.132;2023-04-15T12:39:43;1.37;;;1.00;;
20928;SDS011;21895;47.072;15.132;2023-04-15T12:42:13;1.33;;;0.90;;
20928;SDS011;21895;47.072;15.132;2023-04-15T12:44:41;5.03;;;0.70;;
20928;SDS011;21895;47.072;15.132;2023-04-15T12:47:09;1.27;;;1.00;;
20928;SDS011;21895;47.072;15.132;2023-04-15T12:49:36;1.30;;;0.90;;
20928;SDS011;21895;47.072;15.132;2023-04-15T12:52:04;1.27;;;0.90;;
20928;SDS011;21895;47.072;15.132;2023-04-15T12:54:30;0.70;;;0.70;;
20928;SDS011;21895;47.072;15.132;2023-04-15T12:56:58;4.00;;;0.97;;
20928;SDS011;21895;47.072;15.132;2023-04-15T12:59:25;1.10;;;0.90;;
20928;SDS011;21895;47.072;15.132;2023-04-15T13:01:52;1.33;;;0.80;;
20928;SDS011;21895;47.072;15.132;2023-04-15T13:04:19;1.30;;;0.90;;
20928;SDS011;21895;47.072;15.132;2023-04-15T13:06:46;1.80;;;1.20;;
20928;SDS011;21895;47.072;15.132;2023-04-15T13:09:13;1.90;;;0.90;;
20928;SDS011;21895;47.072;15.132;2023-04-15T13:11:40;0.93;;;0.80;;
20928;SDS011;21895;47.072;15.132;2023-04-15T13:14:07;2.00;;;0.90;;
20928;SDS011;21895;47.072;15.132;2023-04-15T13:16:36;0.87;;;0.87;;
20928;SDS011;21895;47.072;15.132;2023-04-15T13:19:02;1.53;;;0.73;;
20928;SDS011;21895;47.072;15.132;2023-04-15T13:21:30;0.80;;;0.80;;
20928;SDS011;21895;47.072;15.132;2023-04-15T13:23:59;0.73;;;0.73;;
20928;SDS011;21895;47.072;15.132;2023-04-15T13:26:26;4.80;;;0.90;;
20928;SDS011;21895;47.072;15.132;2023-04-15T13:28:52;1.50;;;1.10;;
20928;SDS011;21895;47.072;15.132;2023-04-15T13:31:19;1.57;;;0.90;;
20928;SDS011;21895;47.072;15.132;2023-04-15T13:33:45;1.17;;;0.90;;
20928;SDS011;21895;47.072;15.132;2023-04-15T13:36:12;1.07;;;0.90;;
20928;SDS011;21895;47.072;15.132;2023-04-15T13:38:39;3.80;;;1.10;;
20928;SDS011;21895;47.072;15.132;2023-04-15T13:41:05;3.70;;;0.93;;
20928;SDS011;21895;47.072;15.132;2023-04-15T13:43:32;2.10;;;1.00;;
20928;SDS011;21895;47.072;15.132;2023-04-15T13:45:58;1.67;;;0.97;;
20928;SDS011;21895;47.072;15.132;2023-04-15T13:48:25;1.40;;;0.87;;
20928;SDS011;21895;47.072;15.132;2023-04-15T13:50:52;1.87;;;1.10;;
20928;SDS011;21895;47.072;15.132;2023-04-15T13:53:19;2.50;;;1.47;;
20928;SDS011;21895;47.072;15.132;2023-04-15T13:55:59;1.50;;;1.20;;
20928;SDS011;21895;47.072;15.132;2023-04-15T13:58:25;1.30;;;1.20;;
20928;SDS011;21895;47.072;15.132;2023-04-15T14:00:52;2.53;;;1.20;;
20928;SDS011;21895;47.072;15.132;2023-04-15T14:03:18;2.07;;;1.30;;
20928;SDS011;21895;47.072;15.132;2023-04-15T14:05:45;1.90;;;1.10;;
20928;SDS011;21895;47.072;15.132;2023-04-15T14:08:12;1.17;;;1.07;;
20928;SDS011;21895;47.072;15.132;2023-04-15T14:10:41;4.20;;;0.93;;
20928;SDS011;21895;47.072;15.132;2023-04-15T14:13:10;1.13;;;0.90;;
20928;SDS011;21895;47.072;15.132;2023-04-15T14:15:37;0.80;;;0.80;;
20928;SDS011;21895;47.072;15.132;2023-04-15T14:18:03;2.67;;;1.10;;
20928;SDS011;21895;47.072;15.132;2023-04-15T14:20:30;1.00;;;0.90;;
20928;SDS011;21895;47.072;15.132;2023-04-15T14:22:56;1.33;;;0.80;;
20928;SDS011;21895;47.072;15.132;2023-04-15T14:25:23;6.93;;;0.97;;
20928;SDS011;21895;47.072;15.132;2023-04-15T14:27:59;2.07;;;1.10;;
20928;SDS011;21895;47.072;15.132;2023-04-15T14:30:26;1.97;;;0.97;;
20928;SDS011;21895;47.072;15.132;2023-04-15T14:32:53;1.77;;;1.00;;
20928;SDS011;21895;47.072;15.132;2023-04-15T14:35:20;1.10;;;0.90;;
20928;SDS011;21895;47.072;15.132;2023-04-15T14:37:46;1.60;;;1.07;;
20928;SDS011;21895;47.072;15.132;2023-04-15T14:40:13;1.10;;;1.00;;
20928;SDS011;21895;47.072;15.132;2023-04-15T14:42:39;3.17;;;1.00;;
20928;SDS011;21895;47.072;15.132;2023-04-15T14:45:06;2.20;;;0.87;;
20928;SDS011;21895;47.072;15.132;2023-04-15T14:47:34;1.73;;;1.10;;
20928;SDS011;21895;47.072;15.132;2023-04-15T14:50:00;2.00;;;1.10;;
20928;SDS011;21895;47.072;15.132;2023-04-15T14:52:29;2.67;;;1.17;;
20928;SDS011;21895;47.072;15.132;2023-04-15T14:55:04;1.77;;;1.20;;
20928;SDS011;21895;47.072;15.132;2023-04-15T14:57:32;3.17;;;1.13;;
20928;SDS011;21895;47.072;15.132;2023-04-15T14:59:59;0.80;;;0.70;;
20928;SDS011;21895;47.072;15.132;2023-04-15T15:02:25;1.13;;;1.00;;